Аэропорт: Жуляны. Киев

ICAO: UKKK

METAR:
2018/07/16 19:30
UKKK 161930Z 31003MPS CAVOK 19/16 Q1004 R26/CLRD70 NOSIG
METAR:
2018/07/16 18:15
TAF UKKK 161702Z 1618/1718 30004MPS 9999 BKN030 TX26/1712Z TN15/1702Z 
      TEMPO 1618/1621 VRB07G12MPS 2100 -SHRA BR SCT006 SCT020CB PROB40 
      TEMPO 1618/1621 VRB10G17MPS 1200 TSRA SQ BKN015CB 
      TEMPO 1621/1706 VRB01MPS 1000 -SHRA BR BKN004 SCT020CB 
      BECMG 1706/1708 31005G10MPS 
      TEMPO 1708/1718 VRB09G14MPS 2100 -TSRA BKN007 BKN025CB